6B0

Middlebury State Airport

Middlebury, Vermont, USA
METAR K6B0 181255Z AUTO 17010G14KT 10SM CLR 24/18 A2989 RMK AO2 T02420177
Observed Flight Rules
Jun-18 @ 12:55 UTC (29 minutes ago) Visual Flight Rules
Wind Visibility Clouds
170° at 10 knots
 Gusting to 14 knots
10 miles
  • Clear skies
Temperatures Readings
Current 24°C / 75°F
Dewpoint 18°C / 64°F
Humidity 69%
Altimeter 29.89" Hg
Pressure 1012 hPa
Elevation 149
METAR K6B0 181255Z AUTO 17010G14KT 10SM CLR 24/18 A2989 RMK AO2 T02420177
Observed Flight Rules
Jun-18 @ 12:55 UTC
(29 minutes ago)
VFR
Wind Visibility
170° at 10 knots
 Gusting to 14 knots
10 miles
Clouds
  • Clear skies
Temperature Dewpoint
24°C / 75°F 18°C / 64°F
Humidity Altimeter Pressure
69% 29.89" Hg 1012 hPa